createdAt,value
2018-03-17T00:00:27.602Z,4.30
2018-03-17T00:01:27.627Z,4.04
2018-03-17T00:02:27.654Z,4.05
2018-03-17T00:03:27.681Z,3.98
2018-03-17T00:04:27.707Z,3.90
2018-03-17T00:05:27.735Z,3.88
2018-03-17T00:06:27.763Z,3.97
2018-03-17T00:07:27.791Z,3.90
2018-03-17T00:08:27.818Z,3.87
2018-03-17T00:09:27.844Z,3.79
2018-03-17T00:10:27.913Z,3.87
2018-03-17T00:11:27.896Z,3.97
2018-03-17T00:12:27.925Z,3.93
2018-03-17T00:13:27.953Z,4.00
2018-03-17T00:14:27.980Z,4.02
2018-03-17T00:15:28.007Z,4.00
2018-03-17T00:16:28.035Z,4.11
2018-03-17T00:17:28.070Z,4.20
2018-03-17T00:18:28.088Z,4.20
2018-03-17T00:19:28.114Z,4.34
2018-03-17T00:20:28.142Z,4.29
2018-03-17T00:21:28.170Z,4.30
2018-03-17T00:22:28.195Z,4.29
2018-03-17T00:23:28.223Z,4.32
2018-03-17T00:24:28.257Z,4.27
2018-03-17T00:25:28.279Z,4.18
2018-03-17T00:26:28.305Z,4.16
2018-03-17T00:27:28.331Z,4.02
2018-03-17T00:28:28.358Z,3.96
2018-03-17T00:29:28.386Z,3.97
2018-03-17T00:30:28.412Z,4.15
2018-03-17T00:31:28.439Z,4.08
2018-03-17T00:32:28.466Z,4.23
2018-03-17T00:33:28.494Z,4.05
2018-03-17T00:34:28.523Z,4.23
2018-03-17T00:35:28.548Z,4.16
2018-03-17T00:36:28.574Z,4.15
2018-03-17T00:37:28.601Z,4.05
2018-03-17T00:38:28.628Z,4.08
2018-03-17T00:39:28.654Z,4.08
2018-03-17T00:40:28.684Z,4.15
2018-03-17T00:41:28.709Z,4.09
2018-03-17T00:42:28.739Z,4.02
2018-03-17T00:43:28.765Z,4.08
2018-03-17T00:44:28.790Z,4.05
2018-03-17T00:45:28.819Z,3.98
2018-03-17T00:46:28.844Z,3.83
2018-03-17T00:47:28.871Z,3.80
2018-03-17T00:48:28.898Z,3.96
2018-03-17T00:49:28.924Z,3.84
2018-03-17T00:50:28.951Z,3.86
2018-03-17T00:51:28.980Z,3.86
2018-03-17T00:52:29.005Z,3.96
2018-03-17T00:53:29.031Z,3.98
2018-03-17T00:54:29.059Z,3.96
2018-03-17T00:55:29.086Z,3.94
2018-03-17T00:56:29.112Z,3.83
2018-03-17T00:57:29.170Z,3.78
2018-03-17T00:58:29.166Z,3.65
2018-03-17T00:59:29.193Z,3.72
2018-03-17T01:00:29.220Z,3.73
2018-03-17T01:01:29.247Z,3.52
2018-03-17T01:02:29.274Z,3.66
2018-03-17T01:03:29.300Z,3.86
2018-03-17T01:04:29.328Z,3.80
2018-03-17T01:05:29.355Z,3.79
2018-03-17T01:06:29.381Z,3.75
2018-03-17T01:07:29.408Z,3.79
2018-03-17T01:08:29.436Z,3.79
2018-03-17T01:09:29.463Z,3.87
2018-03-17T01:10:29.490Z,3.80
2018-03-17T01:11:29.517Z,3.80
2018-03-17T01:12:29.542Z,3.80
2018-03-17T01:13:29.570Z,3.69
2018-03-17T01:14:29.597Z,3.57
2018-03-17T01:15:29.622Z,3.45
2018-03-17T01:16:29.649Z,3.31
2018-03-17T01:17:29.677Z,3.21
2018-03-17T01:18:29.704Z,3.23
2018-03-17T01:19:29.730Z,3.20
2018-03-17T01:20:29.757Z,3.18
2018-03-17T01:21:29.785Z,3.18
2018-03-17T01:22:29.811Z,3.15
2018-03-17T01:23:29.837Z,3.14
2018-03-17T01:24:29.863Z,3.11
2018-03-17T01:25:29.891Z,3.18
2018-03-17T01:26:29.920Z,3.31
2018-03-17T01:27:29.944Z,3.35
2018-03-17T01:28:29.970Z,3.42
2018-03-17T01:29:29.997Z,3.55
2018-03-17T01:30:30.025Z,3.50
2018-03-17T01:31:30.051Z,3.66
2018-03-17T01:32:30.078Z,3.50
2018-03-17T01:33:30.105Z,3.65
2018-03-17T01:34:30.132Z,3.52
2018-03-17T01:35:30.160Z,3.57
2018-03-17T01:36:30.185Z,3.68
2018-03-17T01:37:30.212Z,3.62
2018-03-17T01:38:30.240Z,3.50
2018-03-17T01:39:30.267Z,3.52
2018-03-17T01:40:30.293Z,3.50
2018-03-17T01:41:30.319Z,3.51
2018-03-17T01:42:30.347Z,3.48
2018-03-17T01:43:30.373Z,3.47
2018-03-17T01:44:30.400Z,3.40
2018-03-17T01:45:30.426Z,3.52
2018-03-17T01:46:30.453Z,3.48
2018-03-17T01:47:30.480Z,3.43
2018-03-17T01:48:30.511Z,3.54
2018-03-17T01:49:30.534Z,3.48
2018-03-17T01:50:30.562Z,3.47
2018-03-17T01:51:30.588Z,3.54
2018-03-17T01:52:30.614Z,3.69
2018-03-17T01:53:30.642Z,3.70
2018-03-17T01:54:30.669Z,3.72
2018-03-17T01:55:30.694Z,3.69
2018-03-17T01:56:30.722Z,3.69
2018-03-17T01:57:30.749Z,3.62
2018-03-17T01:58:30.776Z,3.73
2018-03-17T01:59:30.802Z,3.75
2018-03-17T02:00:30.830Z,3.51
2018-03-17T02:01:30.859Z,3.61
2018-03-17T02:02:30.883Z,3.62
2018-03-17T02:03:30.912Z,3.52
2018-03-17T02:04:30.936Z,3.54
2018-03-17T02:05:30.962Z,3.69
2018-03-17T02:06:30.989Z,3.68
2018-03-17T02:07:31.016Z,3.66
2018-03-17T02:08:31.043Z,3.73
2018-03-17T02:09:31.075Z,3.58
2018-03-17T02:10:31.098Z,3.60
2018-03-17T02:11:31.122Z,3.50
2018-03-17T02:12:31.150Z,3.57
2018-03-17T02:13:31.176Z,3.60
2018-03-17T02:14:31.202Z,3.66
2018-03-17T02:15:31.228Z,3.54
2018-03-17T02:16:31.256Z,3.65
2018-03-17T02:17:31.281Z,3.52
2018-03-17T02:18:31.310Z,3.51
2018-03-17T02:19:31.335Z,3.57
2018-03-17T02:20:31.362Z,3.58
2018-03-17T02:21:31.387Z,3.51
2018-03-17T02:22:31.418Z,3.50
2018-03-17T02:23:31.441Z,3.35
2018-03-17T02:24:31.468Z,3.36
2018-03-17T02:25:31.495Z,3.17
2018-03-17T02:26:31.521Z,3.28
2018-03-17T02:27:31.548Z,3.36
2018-03-17T02:28:31.574Z,3.33
2018-03-17T02:29:31.601Z,3.36
2018-03-17T02:30:31.628Z,3.39
2018-03-17T02:31:31.661Z,3.40
2018-03-17T02:32:31.680Z,3.28
2018-03-17T02:33:31.709Z,3.40
2018-03-17T02:34:31.737Z,3.24
2018-03-17T02:35:31.769Z,3.29
2018-03-17T02:36:31.787Z,3.47
2018-03-17T02:37:31.813Z,3.36
2018-03-17T02:38:31.842Z,3.33
2018-03-17T02:39:31.866Z,3.36
2018-03-17T02:40:31.894Z,3.35
2018-03-17T02:41:31.926Z,3.47
2018-03-17T02:42:31.948Z,3.32
2018-03-17T02:43:31.975Z,3.36
2018-03-17T02:44:32.000Z,3.52
2018-03-17T02:45:32.026Z,3.36
2018-03-17T02:46:32.055Z,3.36
2018-03-17T02:47:32.077Z,3.28
2018-03-17T02:48:32.110Z,3.26
2018-03-17T02:49:32.131Z,3.20
2018-03-17T02:50:32.157Z,3.05
2018-03-17T02:51:32.182Z,2.96
2018-03-17T02:52:32.267Z,2.81
2018-03-17T02:53:32.239Z,2.75
2018-03-17T02:54:32.263Z,2.72
2018-03-17T02:55:32.288Z,2.74
2018-03-17T02:56:32.316Z,2.78
2018-03-17T02:57:32.344Z,2.87
2018-03-17T02:58:32.369Z,2.97
2018-03-17T02:59:32.394Z,2.92
2018-03-17T03:00:32.422Z,2.89
2018-03-17T03:01:32.449Z,2.82
2018-03-17T03:02:32.477Z,2.96
2018-03-17T03:03:32.499Z,2.84
2018-03-17T03:04:32.528Z,2.92
2018-03-17T03:05:32.554Z,2.84
2018-03-17T03:06:32.580Z,2.82
2018-03-17T03:07:32.609Z,2.71
2018-03-17T03:08:32.633Z,2.82
2018-03-17T03:09:32.660Z,2.82
2018-03-17T03:10:32.688Z,2.75
2018-03-17T03:11:32.713Z,2.67
2018-03-17T03:12:32.739Z,2.60
2018-03-17T03:13:32.765Z,2.63
2018-03-17T03:14:32.792Z,2.60
2018-03-17T03:15:32.818Z,2.60
2018-03-17T03:16:32.850Z,2.52
2018-03-17T03:17:32.873Z,2.41
2018-03-17T03:18:32.897Z,2.42
2018-03-17T03:19:32.923Z,2.52
2018-03-17T03:20:32.950Z,2.46
2018-03-17T03:21:32.977Z,2.43
2018-03-17T03:22:33.002Z,2.31
2018-03-17T03:23:33.028Z,2.36
2018-03-17T03:24:33.056Z,2.43
2018-03-17T03:25:33.084Z,2.36
2018-03-17T03:26:33.110Z,2.28
2018-03-17T03:27:33.135Z,2.28
2018-03-17T03:28:33.169Z,2.30
2018-03-17T03:29:33.190Z,2.28
2018-03-17T03:30:33.217Z,2.16
2018-03-17T03:31:33.244Z,2.17
2018-03-17T03:32:33.269Z,2.12
2018-03-17T03:33:33.295Z,2.05
2018-03-17T03:34:33.322Z,2.00
2018-03-17T03:35:33.348Z,2.18
2018-03-17T03:36:33.375Z,2.45
2018-03-17T03:37:33.401Z,2.27
2018-03-17T03:38:33.428Z,2.36
2018-03-17T03:39:33.455Z,2.31
2018-03-17T03:40:33.481Z,2.41
2018-03-17T03:41:33.508Z,2.36
2018-03-17T03:42:33.537Z,2.43
2018-03-17T03:43:33.561Z,2.52
2018-03-17T03:44:33.588Z,2.56
2018-03-17T03:45:33.614Z,2.53
2018-03-17T03:46:33.641Z,2.59
2018-03-17T03:47:33.669Z,2.56
2018-03-17T03:48:33.693Z,2.45
2018-03-17T03:49:33.721Z,2.45
2018-03-17T03:50:33.746Z,2.36
2018-03-17T03:51:33.772Z,2.35
2018-03-17T03:52:33.798Z,2.27
2018-03-17T03:53:33.825Z,2.28
2018-03-17T03:54:33.852Z,2.39
2018-03-17T03:55:33.878Z,2.42
2018-03-17T03:56:33.908Z,2.46
2018-03-17T03:57:33.931Z,2.45
2018-03-17T03:58:33.958Z,2.46
2018-03-17T03:59:33.987Z,2.45
2018-03-17T04:00:34.010Z,2.45
2018-03-17T04:01:34.038Z,2.39
2018-03-17T04:02:34.063Z,2.34
2018-03-17T04:03:34.092Z,2.30
2018-03-17T04:04:34.117Z,2.39
2018-03-17T04:05:34.143Z,2.38
2018-03-17T04:06:34.170Z,2.39
2018-03-17T04:07:34.196Z,2.43
2018-03-17T04:08:34.223Z,2.53
2018-03-17T04:09:34.250Z,2.45
2018-03-17T04:10:34.276Z,2.49
2018-03-17T04:11:34.304Z,2.41
2018-03-17T04:12:34.329Z,2.46
2018-03-17T04:13:34.357Z,2.56
2018-03-17T04:14:34.383Z,2.57
2018-03-17T04:15:34.417Z,2.64
2018-03-17T04:16:34.436Z,2.63
2018-03-17T04:17:34.463Z,2.57
2018-03-17T04:18:34.490Z,2.52
2018-03-17T04:19:34.514Z,2.48
2018-03-17T04:20:34.542Z,2.46
2018-03-17T04:21:34.568Z,2.49
2018-03-17T04:22:34.595Z,2.64
2018-03-17T04:23:34.621Z,2.60
2018-03-17T04:24:34.648Z,2.57
2018-03-17T04:25:34.675Z,2.56
2018-03-17T04:26:34.700Z,2.56
2018-03-17T04:27:34.730Z,2.67
2018-03-17T04:28:34.755Z,2.74
2018-03-17T04:29:34.785Z,2.72
2018-03-17T04:30:34.808Z,2.69
2018-03-17T04:31:34.833Z,2.75
2018-03-17T04:32:34.859Z,2.69
2018-03-17T04:33:34.887Z,2.87
2018-03-17T04:34:34.920Z,2.92
2018-03-17T04:35:34.940Z,2.97
2018-03-17T04:36:34.968Z,3.00
2018-03-17T04:37:34.994Z,3.06
2018-03-17T04:38:35.022Z,3.02
2018-03-17T04:39:35.046Z,2.90
2018-03-17T04:40:35.073Z,2.99
2018-03-17T04:41:35.100Z,3.06
2018-03-17T04:42:35.128Z,3.06
2018-03-17T04:43:35.153Z,3.00
2018-03-17T04:44:35.180Z,2.96
2018-03-17T04:45:35.206Z,2.96
2018-03-17T04:46:35.235Z,2.90
2018-03-17T04:47:35.259Z,2.87
2018-03-17T04:48:35.288Z,2.81
2018-03-17T04:49:35.315Z,2.75
2018-03-17T04:50:35.343Z,2.84
2018-03-17T04:51:35.366Z,2.81
2018-03-17T04:52:35.396Z,2.82
2018-03-17T04:53:35.421Z,2.81
2018-03-17T04:54:35.448Z,2.77
2018-03-17T04:55:35.474Z,2.82
2018-03-17T04:56:35.500Z,2.92
2018-03-17T04:57:35.527Z,2.96
2018-03-17T04:58:35.555Z,2.96
2018-03-17T04:59:35.580Z,2.93
2018-03-17T05:00:35.608Z,2.85
2018-03-17T05:01:35.635Z,2.85
2018-03-17T05:02:35.661Z,3.05
2018-03-17T05:03:35.688Z,3.08
2018-03-17T05:04:35.714Z,3.14
2018-03-17T05:05:35.742Z,3.08
2018-03-17T05:06:35.768Z,3.17
2018-03-17T05:07:35.793Z,3.10
2018-03-17T05:08:35.822Z,3.14
2018-03-17T05:09:35.849Z,3.14
2018-03-17T05:10:35.878Z,3.18
2018-03-17T05:11:35.901Z,3.15
2018-03-17T05:12:35.928Z,3.23
2018-03-17T05:13:35.956Z,3.15
2018-03-17T05:14:35.991Z,3.17
2018-03-17T05:15:36.009Z,3.20
2018-03-17T05:16:36.036Z,3.18
2018-03-17T05:17:36.063Z,3.14
2018-03-17T05:18:36.091Z,3.17
2018-03-17T05:19:36.117Z,3.31
2018-03-17T05:20:36.144Z,3.31
2018-03-17T05:21:36.171Z,3.28
2018-03-17T05:22:36.199Z,3.31
2018-03-17T05:23:36.225Z,3.20
2018-03-17T05:24:36.251Z,3.29
2018-03-17T05:25:36.279Z,3.36
2018-03-17T05:26:36.307Z,3.32
2018-03-17T05:27:36.330Z,3.24
2018-03-17T05:28:36.358Z,3.20
2018-03-17T05:29:36.385Z,3.24
2018-03-17T05:30:36.414Z,3.35
2018-03-17T05:31:36.439Z,3.24
2018-03-17T05:32:36.467Z,3.35
2018-03-17T05:33:36.493Z,3.33
2018-03-17T05:34:36.521Z,3.40
2018-03-17T05:35:36.548Z,3.35
2018-03-17T05:36:36.575Z,3.36
2018-03-17T05:37:36.602Z,3.40
2018-03-17T05:38:36.632Z,3.36
2018-03-17T05:39:36.656Z,3.33
2018-03-17T05:40:36.682Z,3.39
2018-03-17T05:41:36.710Z,3.48
2018-03-17T05:42:36.738Z,3.28
2018-03-17T05:43:36.763Z,3.33
2018-03-17T05:44:36.790Z,3.14
2018-03-17T05:45:36.818Z,3.11
2018-03-17T05:46:36.843Z,3.32
2018-03-17T05:47:36.870Z,3.14
2018-03-17T05:48:36.898Z,3.23
2018-03-17T05:49:36.925Z,3.35
2018-03-17T05:50:36.952Z,3.52
2018-03-17T05:51:36.979Z,3.45
2018-03-17T05:52:37.007Z,3.51
2018-03-17T05:53:37.033Z,3.43
2018-03-17T05:54:37.060Z,3.50
2018-03-17T05:55:37.087Z,3.55
2018-03-17T05:56:37.115Z,3.51
2018-03-17T05:57:37.141Z,3.51
2018-03-17T05:58:37.229Z,3.51
2018-03-17T05:59:37.196Z,3.54
2018-03-17T06:00:37.222Z,3.51
2018-03-17T06:01:37.248Z,3.57
2018-03-17T06:02:37.279Z,3.55
2018-03-17T06:03:37.305Z,3.54
2018-03-17T06:04:37.330Z,3.51
2018-03-17T06:05:37.357Z,3.55
2018-03-17T06:06:37.385Z,3.66
2018-03-17T06:07:37.411Z,3.65
2018-03-17T06:08:37.437Z,3.65
2018-03-17T06:09:37.465Z,3.78
2018-03-17T06:10:37.493Z,3.80
2018-03-17T06:11:37.522Z,3.83
2018-03-17T06:12:37.546Z,3.83
2018-03-17T06:13:37.574Z,3.76
2018-03-17T06:14:37.602Z,3.72
2018-03-17T06:15:37.628Z,3.78
2018-03-17T06:16:37.659Z,3.68
2018-03-17T06:17:37.683Z,3.66
2018-03-17T06:18:37.711Z,3.69
2018-03-17T06:19:37.737Z,3.62
2018-03-17T06:20:37.765Z,3.76
2018-03-17T06:21:37.793Z,3.88
2018-03-17T06:22:37.820Z,4.02
2018-03-17T06:23:37.847Z,4.09
2018-03-17T06:24:37.873Z,4.05
2018-03-17T06:25:37.901Z,4.18
2018-03-17T06:26:37.928Z,4.11
2018-03-17T06:27:37.956Z,4.14
2018-03-17T06:28:37.986Z,4.09
2018-03-17T06:29:38.012Z,4.20
2018-03-17T06:30:38.040Z,4.18
2018-03-17T06:31:38.067Z,4.27
2018-03-17T06:32:38.095Z,4.27
2018-03-17T06:33:38.123Z,4.40
2018-03-17T06:34:38.150Z,4.45
2018-03-17T06:35:38.178Z,4.59
2018-03-17T06:36:38.210Z,4.52
2018-03-17T06:37:38.235Z,4.66
2018-03-17T06:38:38.261Z,4.67
2018-03-17T06:39:38.288Z,4.72
2018-03-17T06:40:38.316Z,4.77
2018-03-17T06:41:38.344Z,4.69
2018-03-17T06:42:38.371Z,4.72
2018-03-17T06:43:38.398Z,4.78
2018-03-17T06:44:38.426Z,4.91
2018-03-17T06:45:38.454Z,4.86
2018-03-17T06:46:38.482Z,4.88
2018-03-17T06:47:38.509Z,4.86
2018-03-17T06:48:38.538Z,4.99
2018-03-17T06:49:38.565Z,5.03
2018-03-17T06:50:38.593Z,5.17
2018-03-17T06:51:38.620Z,5.06
2018-03-17T06:52:38.648Z,5.12
2018-03-17T06:53:38.676Z,5.09
2018-03-17T06:54:39.004Z,5.04
2018-03-17T06:55:38.760Z,5.03
2018-03-17T06:56:38.790Z,5.12
2018-03-17T06:57:38.808Z,5.12
2018-03-17T06:58:38.842Z,5.21
2018-03-17T06:59:38.843Z,5.38
2018-03-17T07:00:38.931Z,5.43
2018-03-17T07:01:38.900Z,5.39
2018-03-17T07:02:38.929Z,5.43
2018-03-17T07:03:38.961Z,5.49
2018-03-17T07:04:38.985Z,5.42
2018-03-17T07:05:39.012Z,5.30
2018-03-17T07:06:39.042Z,5.28
2018-03-17T07:07:39.069Z,5.35
2018-03-17T07:08:39.097Z,5.33
2018-03-17T07:09:39.126Z,5.30
2018-03-17T07:10:39.154Z,5.31
2018-03-17T07:11:39.181Z,5.21
2018-03-17T07:12:39.210Z,5.17
2018-03-17T07:13:39.240Z,5.21
2018-03-17T07:14:39.273Z,5.20
2018-03-17T07:15:39.294Z,5.24
2018-03-17T07:16:39.322Z,5.21
2018-03-17T07:17:39.351Z,5.27
2018-03-17T07:18:39.380Z,5.22
2018-03-17T07:19:39.408Z,5.30
2018-03-17T07:20:39.436Z,5.31
2018-03-17T07:21:39.464Z,5.33
2018-03-17T07:22:39.493Z,5.24
2018-03-17T07:23:39.521Z,5.30
2018-03-17T07:24:39.549Z,5.38
2018-03-17T07:25:39.577Z,5.45
2018-03-17T07:26:39.606Z,5.48
2018-03-17T07:27:39.634Z,5.53
2018-03-17T07:28:39.662Z,5.61
2018-03-17T07:29:39.691Z,5.61
2018-03-17T07:30:39.719Z,5.58
2018-03-17T07:31:39.747Z,5.64
2018-03-17T07:32:39.774Z,5.61
2018-03-17T07:33:39.802Z,5.64
2018-03-17T07:34:39.834Z,5.60
2018-03-17T07:35:39.863Z,5.64
2018-03-17T07:36:39.898Z,5.71
2018-03-17T07:37:39.917Z,5.75
2018-03-17T07:38:39.946Z,5.81
2018-03-17T07:39:39.975Z,5.89
2018-03-17T07:40:40.006Z,5.83
2018-03-17T07:41:40.032Z,5.93
2018-03-17T07:42:40.061Z,5.93
2018-03-17T07:43:40.089Z,6.03
2018-03-17T07:44:40.116Z,6.08
2018-03-17T07:45:40.147Z,6.17
2018-03-17T07:46:40.175Z,6.03
2018-03-17T07:47:40.203Z,6.17
2018-03-17T07:48:40.234Z,6.17
2018-03-17T07:49:40.262Z,6.28
2018-03-17T07:50:40.291Z,6.25
2018-03-17T07:51:40.319Z,6.27
2018-03-17T07:52:40.348Z,6.40
2018-03-17T07:53:40.377Z,6.40
2018-03-17T07:54:40.406Z,6.31
2018-03-17T07:55:40.435Z,6.28
2018-03-17T07:56:40.464Z,6.28
2018-03-17T07:57:40.493Z,6.17
2018-03-17T07:58:40.528Z,6.15
2018-03-17T07:59:40.551Z,6.25
2018-03-17T08:00:40.581Z,6.22
2018-03-17T08:01:40.611Z,6.17
2018-03-17T08:02:40.640Z,6.28
2018-03-17T08:03:40.669Z,6.28
2018-03-17T08:04:40.698Z,6.36
2018-03-17T08:05:40.728Z,6.37
2018-03-17T08:06:40.757Z,6.28
2018-03-17T08:07:40.786Z,6.27
2018-03-17T08:08:40.816Z,6.36
2018-03-17T08:09:40.846Z,6.31
2018-03-17T08:10:40.874Z,6.28
2018-03-17T08:11:40.903Z,6.31
2018-03-17T08:12:40.932Z,6.28
2018-03-17T08:13:40.962Z,6.17
2018-03-17T08:14:40.993Z,6.21
2018-03-17T08:15:41.021Z,6.27
2018-03-17T08:16:41.052Z,6.17
2018-03-17T08:17:41.080Z,6.31
2018-03-17T08:18:41.109Z,6.30
2018-03-17T08:19:41.138Z,6.25
2018-03-17T08:20:41.168Z,6.27
2018-03-17T08:21:41.199Z,6.22
2018-03-17T08:22:41.228Z,6.14
2018-03-17T08:23:41.256Z,6.19
2018-03-17T08:24:41.284Z,6.15
2018-03-17T08:25:41.315Z,6.27
2018-03-17T08:26:41.344Z,6.22
2018-03-17T08:27:41.378Z,6.43
2018-03-17T08:28:41.402Z,6.52
2018-03-17T08:29:41.432Z,6.56
2018-03-17T08:30:41.461Z,6.54
2018-03-17T08:31:41.491Z,6.54
2018-03-17T08:32:41.521Z,6.66
2018-03-17T08:33:41.550Z,6.77
2018-03-17T08:34:41.578Z,6.73
2018-03-17T08:35:41.607Z,6.91
2018-03-17T08:36:41.635Z,6.81
2018-03-17T08:37:41.668Z,6.74
2018-03-17T08:38:41.696Z,6.85
2018-03-17T08:39:41.724Z,6.88
2018-03-17T08:40:41.753Z,7.02
2018-03-17T08:41:41.782Z,7.03
2018-03-17T08:42:41.811Z,7.16
2018-03-17T08:43:41.840Z,7.06
2018-03-17T08:44:41.870Z,7.07
2018-03-17T08:45:41.900Z,7.17
2018-03-17T08:46:41.928Z,7.07
2018-03-17T08:47:41.958Z,7.15
2018-03-17T08:48:41.986Z,7.23
2018-03-17T08:49:42.016Z,7.12
2018-03-17T08:50:42.044Z,7.20
2018-03-17T08:51:42.074Z,7.17
2018-03-17T08:52:42.105Z,7.13
2018-03-17T08:53:42.133Z,6.79
2018-03-17T08:54:42.163Z,6.76
2018-03-17T08:55:42.191Z,6.94
2018-03-17T08:56:42.220Z,6.98
2018-03-17T08:57:42.251Z,7.03
2018-03-17T08:58:42.334Z,7.16
2018-03-17T08:59:42.306Z,7.24
2018-03-17T09:00:42.337Z,7.31
2018-03-17T09:01:42.366Z,7.35
2018-03-17T09:02:42.396Z,7.48
2018-03-17T09:03:42.425Z,7.49
2018-03-17T09:04:42.452Z,7.58
2018-03-17T09:05:42.483Z,7.52
2018-03-17T09:06:42.512Z,7.67
2018-03-17T09:07:42.541Z,7.90
2018-03-17T09:08:42.569Z,7.89
2018-03-17T09:09:42.601Z,7.98
2018-03-17T09:10:42.655Z,8.05
2018-03-17T09:11:42.658Z,8.10
2018-03-17T09:12:42.702Z,8.10
2018-03-17T09:13:42.726Z,7.90
2018-03-17T09:14:42.748Z,8.05
2018-03-17T09:15:42.777Z,7.83
2018-03-17T09:16:42.807Z,7.63
2018-03-17T09:17:42.836Z,7.49
2018-03-17T09:18:42.866Z,7.71
2018-03-17T09:19:42.896Z,7.49
2018-03-17T09:20:42.925Z,7.75
2018-03-17T09:21:42.956Z,7.77
2018-03-17T09:22:42.985Z,7.82
2018-03-17T09:23:43.016Z,7.77
2018-03-17T09:24:43.046Z,7.74
2018-03-17T09:25:43.075Z,7.60
2018-03-17T09:26:43.106Z,7.57
2018-03-17T09:27:43.137Z,7.49
2018-03-17T09:28:43.171Z,7.64
2018-03-17T09:29:43.197Z,7.64
2018-03-17T09:30:43.227Z,7.68
2018-03-17T09:31:43.255Z,7.92
2018-03-17T09:32:43.285Z,7.57
2018-03-17T09:33:43.316Z,7.71
2018-03-17T09:34:43.347Z,7.74
2018-03-17T09:35:43.375Z,7.55
2018-03-17T09:36:43.404Z,7.28
2018-03-17T09:37:43.435Z,7.43
2018-03-17T09:38:43.465Z,7.45
2018-03-17T09:39:43.496Z,7.50
2018-03-17T09:40:43.524Z,7.50
2018-03-17T09:41:43.560Z,7.61
2018-03-17T09:42:43.584Z,7.67
2018-03-17T09:43:43.613Z,7.72
2018-03-17T09:44:43.643Z,7.75
2018-03-17T09:45:43.674Z,7.82
2018-03-17T09:46:43.704Z,7.48
2018-03-17T09:47:43.737Z,7.60
2018-03-17T09:48:43.762Z,7.32
2018-03-17T09:49:43.792Z,7.17
2018-03-17T09:50:43.823Z,7.23
2018-03-17T09:51:43.851Z,7.15
2018-03-17T09:52:43.883Z,7.16
2018-03-17T09:53:43.913Z,7.17
2018-03-17T09:54:43.943Z,7.30
2018-03-17T09:55:43.971Z,7.31
2018-03-17T09:56:44.000Z,7.25
2018-03-17T09:57:44.031Z,7.21
2018-03-17T09:58:44.060Z,7.16
2018-03-17T09:59:44.725Z,7.21
2018-03-17T10:00:44.119Z,6.99
2018-03-17T10:01:44.149Z,7.09
2018-03-17T10:02:44.179Z,7.17
2018-03-17T10:03:44.206Z,7.24
2018-03-17T10:04:44.238Z,7.37
2018-03-17T10:05:44.268Z,7.53
2018-03-17T10:06:44.297Z,7.63
2018-03-17T10:07:44.327Z,7.49
2018-03-17T10:08:44.356Z,7.55
2018-03-17T10:09:44.386Z,7.50
2018-03-17T10:10:44.416Z,7.55
2018-03-17T10:11:44.445Z,7.61
2018-03-17T10:12:44.477Z,7.83
2018-03-17T10:13:44.506Z,7.80
2018-03-17T10:14:44.535Z,7.80
2018-03-17T10:15:44.564Z,7.82
2018-03-17T10:16:44.594Z,7.71
2018-03-17T10:17:44.624Z,7.64
2018-03-17T10:18:44.653Z,7.72
2018-03-17T10:19:44.683Z,7.61
2018-03-17T10:20:44.713Z,7.48
2018-03-17T10:21:44.741Z,7.34
2018-03-17T10:22:44.772Z,7.45
2018-03-17T10:23:44.800Z,7.39
2018-03-17T10:24:44.831Z,7.39
2018-03-17T10:25:44.862Z,7.46
2018-03-17T10:26:44.890Z,7.49
2018-03-17T10:27:44.919Z,7.71
2018-03-17T10:28:44.949Z,7.97
2018-03-17T10:29:44.979Z,7.85
2018-03-17T10:30:45.008Z,7.71
2018-03-17T10:31:45.038Z,7.60
2018-03-17T10:32:45.067Z,7.58
2018-03-17T10:33:45.119Z,7.83
2018-03-17T10:34:45.128Z,7.77
2018-03-17T10:35:45.156Z,8.04
2018-03-17T10:36:45.186Z,8.00
2018-03-17T10:37:45.216Z,8.07
2018-03-17T10:38:45.245Z,8.11
2018-03-17T10:39:45.296Z,8.19
2018-03-17T10:40:45.311Z,8.25
2018-03-17T10:41:45.335Z,8.20
2018-03-17T10:42:45.365Z,7.98
2018-03-17T10:43:45.400Z,8.02
2018-03-17T10:44:45.425Z,7.83
2018-03-17T10:45:45.457Z,7.87
2018-03-17T10:46:45.484Z,7.86
2018-03-17T10:47:45.559Z,7.79
2018-03-17T10:48:45.544Z,7.98
2018-03-17T10:49:45.581Z,8.16
2018-03-17T10:50:45.604Z,8.00
2018-03-17T10:51:45.635Z,8.22
2018-03-17T10:52:45.666Z,8.33
2018-03-17T10:53:45.694Z,8.56
2018-03-17T10:54:45.724Z,8.63
2018-03-17T10:55:45.755Z,8.63
2018-03-17T10:56:45.785Z,8.63
2018-03-17T10:57:45.815Z,8.70
2018-03-17T10:58:45.857Z,8.65
2018-03-17T10:59:45.876Z,8.58
2018-03-17T11:00:45.905Z,8.56
2018-03-17T11:01:45.936Z,8.68
2018-03-17T11:02:45.966Z,8.68
2018-03-17T11:03:45.995Z,8.66
2018-03-17T11:04:46.026Z,8.55
2018-03-17T11:05:46.057Z,8.66
2018-03-17T11:06:46.088Z,8.61
2018-03-17T11:07:46.117Z,8.63
2018-03-17T11:08:46.148Z,8.68
2018-03-17T11:09:46.182Z,8.63
2018-03-17T11:10:46.210Z,8.53
2018-03-17T11:11:46.239Z,8.55
2018-03-17T11:12:46.269Z,8.58
2018-03-17T11:13:46.302Z,8.74
2018-03-17T11:14:46.330Z,8.65
2018-03-17T11:15:46.360Z,8.73
2018-03-17T11:16:46.390Z,8.65
2018-03-17T11:17:46.421Z,8.55
2018-03-17T11:18:46.451Z,8.65
2018-03-17T11:19:46.481Z,8.63
2018-03-17T11:20:46.511Z,8.52
2018-03-17T11:21:46.547Z,8.44
2018-03-17T11:22:46.573Z,8.47
2018-03-17T11:23:46.604Z,8.36
2018-03-17T11:24:46.631Z,8.40
2018-03-17T11:25:46.662Z,8.34
2018-03-17T11:26:46.697Z,8.30
2018-03-17T11:27:46.724Z,8.22
2018-03-17T11:28:46.757Z,8.34
2018-03-17T11:29:46.784Z,8.34
2018-03-17T11:30:46.814Z,8.41
2018-03-17T11:31:46.844Z,8.47
2018-03-17T11:32:46.874Z,8.30
2018-03-17T11:33:46.952Z,8.25
2018-03-17T11:34:46.935Z,8.29
2018-03-17T11:35:46.964Z,8.29
2018-03-17T11:36:46.994Z,8.34
2018-03-17T11:37:47.024Z,8.38
2018-03-17T11:38:47.055Z,8.22
2018-03-17T11:39:47.085Z,8.10
2018-03-17T11:40:47.115Z,8.20
2018-03-17T11:41:47.146Z,8.30
2018-03-17T11:42:47.176Z,8.45
2018-03-17T11:43:47.206Z,8.47
2018-03-17T11:44:47.236Z,8.45
2018-03-17T11:45:47.267Z,8.53
2018-03-17T11:46:47.295Z,8.53
2018-03-17T11:47:47.325Z,8.53
2018-03-17T11:48:47.356Z,8.43
2018-03-17T11:49:47.387Z,8.33
2018-03-17T11:50:47.417Z,8.34
2018-03-17T11:51:47.448Z,8.04
2018-03-17T11:52:47.478Z,8.20
2018-03-17T11:53:47.507Z,8.30
2018-03-17T11:54:47.538Z,8.43
2018-03-17T11:55:47.567Z,8.33
2018-03-17T11:56:47.598Z,8.41
2018-03-17T11:57:47.628Z,8.22
2018-03-17T11:58:47.658Z,8.23
2018-03-17T11:59:47.686Z,8.10
2018-03-17T12:00:47.717Z,8.18
2018-03-17T12:01:47.750Z,8.23
2018-03-17T12:02:47.793Z,8.19
2018-03-17T12:03:47.807Z,8.30
2018-03-17T12:04:47.837Z,8.44
2018-03-17T12:05:47.867Z,8.43
2018-03-17T12:06:47.901Z,8.38
2018-03-17T12:07:47.928Z,8.29
2018-03-17T12:08:47.957Z,8.37
2018-03-17T12:09:47.988Z,8.20
2018-03-17T12:10:48.017Z,8.20
2018-03-17T12:11:48.047Z,8.16
2018-03-17T12:12:48.081Z,8.25
2018-03-17T12:13:48.106Z,8.22
2018-03-17T12:14:48.137Z,8.25
2018-03-17T12:15:48.165Z,8.07
2018-03-17T12:16:48.195Z,8.20
2018-03-17T12:17:48.226Z,8.25
2018-03-17T12:18:48.256Z,8.22
2018-03-17T12:19:48.285Z,8.19
2018-03-17T12:20:48.320Z,8.07
2018-03-17T12:21:48.343Z,8.07
2018-03-17T12:22:48.373Z,8.10
2018-03-17T12:23:48.403Z,8.05
2018-03-17T12:24:48.433Z,7.98
2018-03-17T12:25:48.464Z,8.01
2018-03-17T12:26:48.494Z,8.01
2018-03-17T12:27:48.523Z,8.00
2018-03-17T12:28:48.552Z,7.83
2018-03-17T12:29:48.582Z,7.98
2018-03-17T12:30:48.612Z,7.95
2018-03-17T12:31:48.640Z,7.97
2018-03-17T12:32:48.672Z,7.93
2018-03-17T12:33:48.701Z,7.98
2018-03-17T12:34:48.739Z,8.01
2018-03-17T12:35:48.760Z,7.82
2018-03-17T12:36:48.790Z,7.49
2018-03-17T12:37:48.820Z,7.74
2018-03-17T12:38:48.849Z,7.67
2018-03-17T12:39:48.878Z,7.60
2018-03-17T12:40:48.908Z,7.60
2018-03-17T12:41:48.941Z,7.77
2018-03-17T12:42:48.967Z,7.79
2018-03-17T12:43:48.995Z,7.71
2018-03-17T12:44:49.027Z,7.80
2018-03-17T12:45:49.058Z,7.63
2018-03-17T12:46:49.086Z,7.50
2018-03-17T12:47:49.114Z,7.60
2018-03-17T12:48:49.144Z,7.52
2018-03-17T12:49:49.174Z,7.45
2018-03-17T12:50:49.204Z,7.46
2018-03-17T12:51:49.233Z,7.48
2018-03-17T12:52:49.262Z,7.45
2018-03-17T12:53:49.295Z,7.24
2018-03-17T12:54:49.320Z,7.10
2018-03-17T12:55:49.350Z,7.25
2018-03-17T12:56:49.385Z,7.07
2018-03-17T12:57:49.409Z,7.15
2018-03-17T12:58:49.438Z,7.16
2018-03-17T12:59:49.468Z,7.13
2018-03-17T13:00:49.498Z,7.15
2018-03-17T13:01:49.525Z,6.73
2018-03-17T13:02:49.556Z,6.74
2018-03-17T13:03:49.638Z,6.88
2018-03-17T13:04:49.613Z,7.02
2018-03-17T13:05:49.642Z,6.88
2018-03-17T13:06:49.672Z,6.88
2018-03-17T13:07:49.701Z,6.73
2018-03-17T13:08:49.731Z,6.91
2018-03-17T13:09:49.760Z,7.06
2018-03-17T13:10:49.790Z,6.79
2018-03-17T13:11:49.819Z,6.71
2018-03-17T13:12:49.848Z,6.74
2018-03-17T13:13:49.877Z,6.92
2018-03-17T13:14:49.906Z,6.84
2018-03-17T13:15:49.935Z,6.71
2018-03-17T13:16:49.965Z,6.77
2018-03-17T13:17:49.994Z,6.91
2018-03-17T13:18:50.023Z,6.64